createdAt,value
2023-01-19T00:01:09.063Z,5.24
2023-01-19T00:03:37.213Z,5.17
2023-01-19T00:06:09.029Z,5.11
2023-01-19T00:08:37.251Z,5.06
2023-01-19T00:11:05.442Z,5.00
2023-01-19T00:13:33.707Z,4.94
2023-01-19T00:16:01.772Z,4.88
2023-01-19T00:18:29.743Z,4.82
2023-01-19T00:20:57.691Z,4.77
2023-01-19T00:23:25.684Z,4.71
2023-01-19T00:25:53.755Z,4.66
2023-01-19T00:28:21.727Z,4.63
2023-01-19T00:30:50.427Z,4.59
2023-01-19T00:33:18.379Z,4.55
2023-01-19T00:35:51.679Z,4.52
2023-01-19T00:38:19.951Z,4.49
2023-01-19T00:40:48.640Z,4.46
2023-01-19T00:43:16.919Z,4.44
2023-01-19T00:45:45.728Z,4.40
2023-01-19T00:48:13.954Z,4.38
2023-01-19T00:50:41.869Z,4.35
2023-01-19T00:53:09.926Z,4.33
2023-01-19T00:55:37.991Z,4.32
2023-01-19T00:58:07.406Z,4.32
2023-01-19T01:00:35.599Z,4.32
2023-01-19T01:03:04.386Z,4.32
2023-01-19T01:05:32.497Z,4.33
2023-01-19T01:08:00.414Z,4.33
2023-01-19T01:10:29.634Z,4.33
2023-01-19T01:13:20.783Z,4.32
2023-01-19T01:15:45.269Z,4.31
2023-01-19T01:18:13.430Z,4.30
2023-01-19T01:20:41.543Z,4.31
2023-01-19T01:23:09.652Z,4.32
2023-01-19T01:25:38.633Z,4.34
2023-01-19T01:28:08.832Z,4.34
2023-01-19T01:30:40.079Z,4.34
2023-01-19T01:33:08.906Z,4.35
2023-01-19T01:35:37.421Z,4.36
2023-01-19T01:38:05.528Z,4.36
2023-01-19T01:40:33.616Z,4.36
2023-01-19T01:43:03.177Z,4.33
2023-01-19T01:45:38.523Z,4.30
2023-01-19T01:48:27.713Z,4.27
2023-01-19T01:51:25.184Z,4.24
2023-01-19T01:54:03.589Z,4.21
2023-01-19T01:56:35.969Z,4.18
2023-01-19T01:59:08.505Z,4.16
2023-01-19T02:01:55.597Z,4.15
2023-01-19T02:04:24.093Z,4.13
2023-01-19T02:07:10.642Z,4.14
2023-01-19T02:09:57.356Z,4.13
2023-01-19T02:12:44.161Z,4.12
2023-01-19T02:15:21.556Z,4.12
2023-01-19T02:17:50.339Z,4.10
2023-01-19T02:20:21.486Z,4.07
2023-01-19T02:22:51.811Z,4.04
2023-01-19T02:25:20.629Z,4.00
2023-01-19T02:27:51.752Z,3.99
2023-01-19T02:30:19.975Z,3.98
2023-01-19T02:32:48.091Z,3.99
2023-01-19T02:35:16.366Z,4.00
2023-01-19T02:37:45.122Z,4.01
2023-01-19T02:40:19.736Z,4.02
2023-01-19T02:42:52.565Z,4.02
2023-01-19T02:45:23.056Z,4.03
2023-01-19T02:47:52.735Z,4.01
2023-01-19T02:50:36.362Z,4.01
2023-01-19T02:53:26.100Z,4.01
2023-01-19T02:56:02.429Z,4.04
2023-01-19T02:59:04.898Z,4.03
2023-01-19T03:01:58.906Z,4.01
2023-01-19T03:04:42.073Z,3.99
2023-01-19T03:07:31.682Z,3.97
2023-01-19T03:10:07.932Z,3.96
2023-01-19T03:12:44.691Z,3.94
2023-01-19T03:15:32.968Z,3.89
2023-01-19T03:18:02.435Z,3.86
2023-01-19T03:20:30.223Z,3.83
2023-01-19T03:23:05.352Z,3.79
2023-01-19T03:25:37.196Z,3.75
2023-01-19T03:28:05.986Z,3.72
2023-01-19T03:30:39.573Z,3.68
2023-01-19T03:33:14.880Z,3.64
2023-01-19T03:35:54.033Z,3.59
2023-01-19T03:38:25.415Z,3.54
2023-01-19T03:41:00.446Z,3.52
2023-01-19T03:43:30.437Z,3.52
2023-01-19T03:45:59.448Z,3.51
2023-01-19T03:48:27.834Z,3.53
2023-01-19T03:50:56.069Z,3.53
2023-01-19T03:53:24.079Z,3.52
2023-01-19T03:55:54.305Z,3.49
2023-01-19T03:58:22.478Z,3.45
2023-01-19T04:00:50.687Z,3.40
2023-01-19T04:03:18.950Z,3.35
2023-01-19T04:05:46.979Z,3.31
2023-01-19T04:08:15.086Z,3.28
2023-01-19T04:10:43.152Z,3.24
2023-01-19T04:13:11.113Z,3.18
2023-01-19T04:15:39.141Z,3.14
2023-01-19T04:18:07.288Z,3.11
2023-01-19T04:20:35.330Z,3.09
2023-01-19T04:23:03.751Z,3.07
2023-01-19T04:25:32.190Z,3.07
2023-01-19T04:28:00.177Z,3.08
2023-01-19T04:30:28.576Z,3.10
2023-01-19T04:32:59.281Z,3.11
2023-01-19T04:35:27.524Z,3.13
2023-01-19T04:37:55.651Z,3.17
2023-01-19T04:40:23.594Z,3.19
2023-01-19T04:42:51.457Z,3.23
2023-01-19T04:45:19.574Z,3.27
2023-01-19T04:47:47.496Z,3.30
2023-01-19T04:50:15.780Z,3.34
2023-01-19T04:52:43.745Z,3.40
2023-01-19T04:55:11.697Z,3.46
2023-01-19T04:57:39.601Z,3.51
2023-01-19T05:00:08.854Z,3.55
2023-01-19T05:02:36.868Z,3.58
2023-01-19T05:05:05.232Z,3.59
2023-01-19T05:07:33.213Z,3.60
2023-01-19T05:10:01.270Z,3.61
2023-01-19T05:12:29.180Z,3.61
2023-01-19T05:14:57.215Z,3.60
2023-01-19T05:17:25.795Z,3.61
2023-01-19T05:19:53.867Z,3.63
2023-01-19T05:22:21.789Z,3.63
2023-01-19T05:24:49.806Z,3.64
2023-01-19T05:27:17.880Z,3.65
2023-01-19T05:29:45.950Z,3.65
2023-01-19T05:32:13.923Z,3.69
2023-01-19T05:34:42.197Z,3.72
2023-01-19T05:37:10.165Z,3.75
2023-01-19T05:39:39.158Z,3.78
2023-01-19T05:42:07.489Z,3.81
2023-01-19T05:44:35.918Z,3.86
2023-01-19T05:47:05.276Z,3.90
2023-01-19T05:49:33.293Z,3.97
2023-01-19T05:52:01.331Z,4.06
2023-01-19T05:54:29.567Z,4.15
2023-01-19T05:56:57.788Z,4.22
2023-01-19T05:59:25.967Z,4.27
2023-01-19T06:01:54.247Z,4.32
2023-01-19T06:04:22.345Z,4.35
2023-01-19T06:06:50.535Z,4.38
2023-01-19T06:09:19.001Z,4.41
2023-01-19T06:11:47.505Z,4.44
2023-01-19T06:14:15.520Z,4.47
2023-01-19T06:16:43.588Z,4.48
2023-01-19T06:19:11.629Z,4.49
2023-01-19T06:21:39.925Z,4.49
2023-01-19T06:24:08.016Z,4.47
2023-01-19T06:26:36.309Z,4.46
2023-01-19T06:29:04.287Z,4.45
2023-01-19T06:31:32.146Z,4.43
2023-01-19T06:34:00.101Z,4.43
2023-01-19T06:36:28.125Z,4.46
2023-01-19T06:38:56.279Z,4.49
2023-01-19T06:41:24.303Z,4.53
2023-01-19T06:43:52.454Z,4.60
2023-01-19T06:46:20.592Z,4.67
2023-01-19T06:48:48.569Z,4.72
2023-01-19T06:51:16.793Z,4.76
2023-01-19T06:53:44.664Z,4.77
2023-01-19T06:56:13.039Z,4.78
2023-01-19T06:58:43.060Z,4.77
2023-01-19T07:01:11.041Z,4.74
2023-01-19T07:03:40.947Z,4.72
2023-01-19T07:06:08.790Z,4.70
2023-01-19T07:08:38.316Z,4.68
2023-01-19T07:11:25.098Z,4.67
2023-01-19T07:13:57.531Z,4.66
2023-01-19T07:16:25.706Z,4.61
2023-01-19T07:18:53.756Z,4.59
2023-01-19T07:21:22.034Z,4.58
2023-01-19T07:23:52.812Z,4.60
2023-01-19T07:26:21.827Z,4.63
2023-01-19T07:28:50.753Z,4.66
2023-01-19T07:31:19.497Z,4.73
2023-01-19T07:33:47.595Z,4.83
2023-01-19T07:36:15.691Z,4.96
2023-01-19T07:38:43.761Z,5.13
2023-01-19T07:41:11.914Z,5.32
2023-01-19T07:43:40.669Z,5.48
2023-01-19T07:46:08.857Z,5.65
2023-01-19T07:48:36.917Z,5.98
2023-01-19T07:51:10.983Z,6.95
2023-01-19T07:53:42.059Z,8.80
2023-01-19T07:56:11.308Z,10.52
2023-01-19T07:58:40.138Z,11.87
2023-01-19T08:01:10.604Z,12.46
2023-01-19T08:03:39.022Z,12.87
2023-01-19T08:06:07.613Z,13.25
2023-01-19T08:08:35.668Z,13.28
2023-01-19T08:11:03.738Z,13.10
2023-01-19T08:13:32.012Z,12.74
2023-01-19T08:16:00.373Z,12.31
2023-01-19T08:18:28.396Z,11.89
2023-01-19T08:20:59.491Z,11.55
2023-01-19T08:23:30.826Z,11.19
2023-01-19T08:25:58.809Z,10.86
2023-01-19T08:28:27.068Z,10.65
2023-01-19T08:30:55.456Z,10.60
2023-01-19T08:33:25.417Z,10.65
2023-01-19T08:35:54.547Z,10.67
2023-01-19T08:38:22.904Z,10.69
2023-01-19T08:40:51.017Z,10.76
2023-01-19T08:43:19.197Z,10.82
2023-01-19T08:45:51.661Z,10.86
2023-01-19T08:48:24.851Z,10.85
2023-01-19T08:50:53.555Z,10.85
2023-01-19T08:53:23.707Z,10.93
2023-01-19T08:56:01.336Z,11.07
2023-01-19T08:58:29.739Z,11.24
2023-01-19T09:01:00.670Z,11.51
2023-01-19T09:03:29.785Z,12.04
2023-01-19T09:05:57.945Z,12.67
2023-01-19T09:08:25.914Z,13.23
2023-01-19T09:10:53.888Z,13.91
2023-01-19T09:13:21.828Z,15.14
2023-01-19T09:15:49.903Z,16.32
2023-01-19T09:18:21.492Z,16.91
2023-01-19T09:20:51.090Z,17.57
2023-01-19T09:23:20.971Z,18.66
2023-01-19T09:25:49.360Z,20.03
2023-01-19T09:28:17.882Z,21.13
2023-01-19T09:30:45.995Z,21.60
2023-01-19T09:33:16.309Z,21.31
2023-01-19T09:35:46.384Z,20.79
2023-01-19T09:38:16.426Z,20.39
2023-01-19T09:40:49.577Z,19.71
2023-01-19T09:43:27.912Z,19.17
2023-01-19T09:46:01.303Z,18.66
2023-01-19T09:48:45.811Z,18.09
2023-01-19T09:51:20.890Z,17.57
2023-01-19T09:54:15.774Z,17.11
2023-01-19T09:56:51.331Z,16.72
2023-01-19T09:59:23.110Z,16.58
2023-01-19T10:02:00.896Z,16.39
2023-01-19T10:04:39.926Z,16.34
2023-01-19T10:07:53.278Z,16.56
2023-01-19T10:10:29.762Z,16.55
2023-01-19T10:13:29.188Z,16.56
2023-01-19T10:16:41.444Z,16.33
2023-01-19T10:19:23.732Z,15.92
2023-01-19T10:21:55.302Z,15.54
2023-01-19T10:24:38.589Z,15.34
2023-01-19T10:27:18.026Z,15.72
2023-01-19T10:29:46.865Z,16.12
2023-01-19T10:32:22.094Z,16.52
2023-01-19T10:34:51.615Z,17.04
2023-01-19T10:37:46.491Z,17.58
2023-01-19T10:40:22.663Z,18.22
2023-01-19T10:42:50.979Z,18.77
2023-01-19T10:45:22.850Z,19.23
2023-01-19T10:47:52.787Z,19.65
2023-01-19T10:50:29.044Z,19.95
2023-01-19T10:53:00.451Z,20.25
2023-01-19T10:55:39.671Z,20.46
2023-01-19T10:58:29.356Z,20.49
2023-01-19T11:01:16.648Z,20.34
2023-01-19T11:03:45.779Z,19.99
2023-01-19T11:06:14.895Z,19.55
2023-01-19T11:08:43.547Z,19.13
2023-01-19T11:11:15.116Z,18.67
2023-01-19T11:13:44.097Z,18.27
2023-01-19T11:16:21.093Z,17.82
2023-01-19T11:18:52.553Z,17.43
2023-01-19T11:21:25.972Z,17.05
2023-01-19T11:23:57.886Z,16.65
2023-01-19T11:26:44.903Z,16.16
2023-01-19T11:29:22.538Z,15.69
2023-01-19T11:31:51.815Z,15.26
2023-01-19T11:34:40.537Z,14.85
2023-01-19T11:37:20.915Z,14.48
2023-01-19T11:39:51.363Z,14.07
2023-01-19T11:42:20.690Z,13.75
2023-01-19T11:45:24.283Z,13.56
2023-01-19T11:47:52.831Z,13.28
2023-01-19T11:50:33.158Z,13.08
2023-01-19T11:53:23.370Z,12.88
2023-01-19T11:55:56.997Z,12.69
2023-01-19T11:58:26.803Z,12.55
2023-01-19T12:01:00.719Z,12.46
2023-01-19T12:03:39.081Z,12.36
2023-01-19T12:06:12.429Z,12.27
2023-01-19T12:08:45.636Z,12.16
2023-01-19T12:11:20.239Z,12.04
2023-01-19T12:13:49.454Z,11.90
2023-01-19T12:16:22.940Z,11.81
2023-01-19T12:19:04.211Z,11.74
2023-01-19T12:21:32.495Z,11.70
2023-01-19T12:24:03.577Z,11.67
2023-01-19T12:26:44.952Z,11.64
2023-01-19T12:29:18.724Z,11.64
2023-01-19T12:32:18.450Z,11.96
2023-01-19T12:34:55.945Z,12.41
2023-01-19T12:37:40.363Z,12.77
2023-01-19T12:40:23.915Z,13.17
2023-01-19T12:43:03.260Z,13.57
2023-01-19T12:45:34.905Z,14.21
2023-01-19T12:48:04.340Z,14.82
2023-01-19T12:50:38.076Z,14.93
2023-01-19T12:53:19.275Z,14.90
2023-01-19T12:55:59.899Z,14.72
2023-01-19T12:58:28.173Z,14.53
2023-01-19T13:01:16.131Z,14.35
2023-01-19T13:04:03.578Z,14.09
2023-01-19T13:06:47.156Z,13.92
2023-01-19T13:09:32.721Z,13.72
2023-01-19T13:12:24.210Z,13.49
2023-01-19T13:15:28.845Z,13.24
2023-01-19T13:17:57.458Z,13.04
2023-01-19T13:20:27.658Z,12.86
2023-01-19T13:23:20.655Z,12.69
2023-01-19T13:25:58.518Z,12.56
2023-01-19T13:28:41.081Z,12.42
2023-01-19T13:31:12.166Z,12.31
2023-01-19T13:33:42.979Z,12.28
2023-01-19T13:36:38.755Z,12.23
2023-01-19T13:39:33.621Z,12.16
2023-01-19T13:42:24.009Z,12.08
2023-01-19T13:44:54.900Z,11.99
2023-01-19T13:47:52.921Z,11.94
2023-01-19T13:50:27.125Z,11.88
2023-01-19T13:52:56.861Z,11.83
2023-01-19T13:55:30.120Z,11.78
2023-01-19T13:57:58.390Z,11.71
2023-01-19T14:00:28.877Z,11.65
2023-01-19T14:02:59.250Z,11.59
2023-01-19T14:05:34.996Z,11.52
2023-01-19T14:08:11.391Z,11.46
2023-01-19T14:10:47.177Z,11.38
2023-01-19T14:13:19.475Z,11.30
2023-01-19T14:15:50.274Z,11.22
2023-01-19T14:18:18.699Z,11.13
2023-01-19T14:21:07.770Z,11.05
2023-01-19T14:23:35.683Z,10.95
2023-01-19T14:26:04.486Z,10.87
2023-01-19T14:28:35.731Z,10.79
2023-01-19T14:31:19.036Z,10.73
2023-01-19T14:33:49.994Z,10.69
2023-01-19T14:36:26.681Z,10.65
2023-01-19T14:38:58.507Z,10.59
2023-01-19T14:41:49.106Z,10.55
2023-01-19T14:44:21.609Z,10.50
2023-01-19T14:46:50.285Z,10.45
2023-01-19T14:49:29.266Z,10.41
2023-01-19T14:51:57.575Z,10.37
2023-01-19T14:54:33.736Z,10.33
2023-01-19T14:57:02.044Z,10.32
2023-01-19T14:59:30.318Z,10.29
2023-01-19T15:01:59.954Z,10.25
2023-01-19T15:04:28.206Z,10.20
2023-01-19T15:06:56.541Z,10.17
2023-01-19T15:09:25.381Z,10.14
2023-01-19T15:11:53.850Z,10.11
2023-01-19T15:14:22.129Z,10.08
2023-01-19T15:16:50.613Z,10.06
2023-01-19T15:19:18.795Z,10.04
2023-01-19T15:21:47.036Z,10.03
2023-01-19T15:24:17.744Z,10.01
2023-01-19T15:26:46.274Z,9.99
2023-01-19T15:29:29.786Z,9.98
2023-01-19T15:31:59.011Z,9.96
2023-01-19T15:34:26.990Z,9.93
2023-01-19T15:36:54.905Z,9.91
2023-01-19T15:39:23.657Z,9.91
2023-01-19T15:41:52.934Z,9.90
2023-01-19T15:44:21.217Z,9.89
2023-01-19T15:46:49.885Z,9.89
2023-01-19T15:49:17.869Z,9.87
2023-01-19T15:51:45.838Z,9.86
2023-01-19T15:54:17.080Z,9.84
2023-01-19T15:56:45.461Z,9.82
2023-01-19T15:59:13.738Z,9.80
2023-01-19T16:01:41.885Z,9.79
2023-01-19T16:04:11.853Z,9.77
2023-01-19T16:06:40.109Z,9.74
2023-01-19T16:09:08.132Z,9.69
2023-01-19T16:11:37.990Z,9.63
2023-01-19T16:14:06.060Z,9.55
2023-01-19T16:16:34.203Z,9.48
2023-01-19T16:19:02.436Z,9.42
2023-01-19T16:21:30.444Z,9.36
2023-01-19T16:23:58.313Z,9.32
2023-01-19T16:26:34.893Z,9.28
2023-01-19T16:29:08.816Z,9.24
2023-01-19T16:31:38.129Z,9.20
2023-01-19T16:34:06.107Z,9.17
2023-01-19T16:36:36.545Z,9.12
2023-01-19T16:39:07.469Z,9.10
2023-01-19T16:41:36.679Z,9.08
2023-01-19T16:44:04.851Z,9.07
2023-01-19T16:46:36.059Z,9.05
2023-01-19T16:49:06.889Z,9.02
2023-01-19T16:51:34.894Z,9.00
2023-01-19T16:54:03.473Z,8.96
2023-01-19T16:56:31.449Z,8.90
2023-01-19T16:59:00.075Z,8.82
2023-01-19T17:01:29.365Z,8.74
2023-01-19T17:03:57.348Z,8.66
2023-01-19T17:06:26.322Z,8.59
2023-01-19T17:08:54.569Z,8.53
2023-01-19T17:11:25.918Z,8.47
2023-01-19T17:13:56.818Z,8.41
2023-01-19T17:16:25.246Z,8.37
2023-01-19T17:18:54.435Z,8.34
2023-01-19T17:21:22.504Z,8.32
2023-01-19T17:23:53.620Z,8.30
2023-01-19T17:26:25.377Z,8.28
2023-01-19T17:28:58.414Z,8.26
2023-01-19T17:31:26.737Z,8.21
2023-01-19T17:33:54.949Z,8.15
2023-01-19T17:36:25.492Z,8.10
2023-01-19T17:38:56.317Z,8.05
2023-01-19T17:41:25.891Z,8.01
2023-01-19T17:43:54.912Z,7.97
2023-01-19T17:46:25.291Z,7.92
2023-01-19T17:49:01.483Z,7.87
2023-01-19T17:51:30.797Z,7.79
2023-01-19T17:53:59.595Z,7.74
2023-01-19T17:56:30.362Z,7.65
2023-01-19T17:58:59.458Z,7.59
2023-01-19T18:01:30.204Z,7.52
2023-01-19T18:03:58.854Z,7.46
2023-01-19T18:06:26.824Z,7.40
2023-01-19T18:08:55.107Z,7.34
2023-01-19T18:11:23.061Z,7.29
2023-01-19T18:13:51.884Z,7.27
2023-01-19T18:16:28.604Z,7.25
2023-01-19T18:18:57.193Z,7.22
2023-01-19T18:21:28.213Z,7.21
2023-01-19T18:24:04.417Z,7.20
2023-01-19T18:26:35.763Z,7.20
2023-01-19T18:29:04.035Z,7.20
2023-01-19T18:31:32.165Z,7.21
2023-01-19T18:34:00.231Z,7.22
2023-01-19T18:36:28.558Z,7.24
2023-01-19T18:38:56.545Z,7.24
2023-01-19T18:41:25.344Z,7.25
2023-01-19T18:43:58.301Z,7.27
2023-01-19T18:46:27.558Z,7.28
2023-01-19T18:48:55.861Z,7.29
2023-01-19T18:51:23.988Z,7.31
2023-01-19T18:53:52.336Z,7.32
2023-01-19T18:56:20.609Z,7.33
2023-01-19T18:58:48.585Z,7.34
2023-01-19T19:01:24.075Z,7.36
2023-01-19T19:03:53.851Z,7.37
2023-01-19T19:06:23.415Z,7.39
2023-01-19T19:08:52.606Z,7.41
2023-01-19T19:11:22.889Z,7.43
2023-01-19T19:14:00.252Z,7.45
2023-01-19T19:16:30.298Z,7.48
2023-01-19T19:18:59.136Z,7.49
2023-01-19T19:21:27.569Z,7.49
2023-01-19T19:23:57.549Z,7.50
2023-01-19T19:26:28.275Z,7.50
2023-01-19T19:28:56.896Z,7.51
2023-01-19T19:31:26.952Z,7.51
2023-01-19T19:33:56.574Z,7.51
2023-01-19T19:36:26.627Z,7.51
2023-01-19T19:38:54.702Z,7.50
2023-01-19T19:41:27.216Z,7.50
2023-01-19T19:43:55.947Z,7.50
2023-01-19T19:46:25.483Z,7.48
2023-01-19T19:48:54.150Z,7.47
2023-01-19T19:51:26.895Z,7.46
2023-01-19T19:53:57.411Z,7.45
2023-01-19T19:56:28.138Z,7.44
2023-01-19T19:58:57.876Z,7.42
2023-01-19T20:01:32.551Z,7.43
2023-01-19T20:04:07.669Z,7.43
2023-01-19T20:06:39.056Z,7.43
2023-01-19T20:09:10.671Z,7.43
2023-01-19T20:11:39.631Z,7.43
2023-01-19T20:14:09.994Z,7.45
2023-01-19T20:16:38.585Z,7.45
2023-01-19T20:19:06.736Z,7.46
2023-01-19T20:21:37.383Z,7.45
2023-01-19T20:24:15.256Z,7.44
2023-01-19T20:26:46.327Z,7.43
2023-01-19T20:29:15.323Z,7.42
2023-01-19T20:31:46.832Z,7.40
2023-01-19T20:34:18.021Z,7.38
2023-01-19T20:36:49.788Z,7.37
2023-01-19T20:39:18.939Z,7.36
2023-01-19T20:41:50.193Z,7.34
2023-01-19T20:44:25.262Z,7.34
2023-01-19T20:46:54.150Z,7.33
2023-01-19T20:49:23.260Z,7.33
2023-01-19T20:51:52.227Z,7.32
2023-01-19T20:54:23.086Z,7.31
2023-01-19T20:56:51.284Z,7.31
2023-01-19T20:59:19.450Z,7.31
2023-01-19T21:01:48.612Z,7.31
2023-01-19T21:04:17.587Z,7.31
2023-01-19T21:06:45.760Z,7.31
2023-01-19T21:09:13.971Z,7.31
2023-01-19T21:11:41.971Z,7.32
2023-01-19T21:14:11.032Z,7.31
2023-01-19T21:16:39.026Z,7.30
2023-01-19T21:19:07.663Z,7.29
2023-01-19T21:21:35.588Z,7.28
2023-01-19T21:24:04.753Z,7.27
2023-01-19T21:26:33.641Z,7.26
2023-01-19T21:29:03.653Z,7.25
2023-01-19T21:31:31.750Z,7.23
2023-01-19T21:34:00.013Z,7.21
2023-01-19T21:36:28.299Z,7.17
2023-01-19T21:39:00.666Z,7.15
2023-01-19T21:41:34.874Z,7.14
2023-01-19T21:44:03.148Z,7.12
2023-01-19T21:46:33.081Z,7.11
2023-01-19T21:49:04.267Z,7.12
2023-01-19T21:51:35.039Z,7.13
2023-01-19T21:54:05.586Z,7.14
2023-01-19T21:56:34.708Z,7.15
2023-01-19T21:59:03.663Z,7.17
2023-01-19T22:01:33.267Z,7.18
2023-01-19T22:04:01.543Z,7.20
2023-01-19T22:06:29.971Z,7.21
2023-01-19T22:08:58.518Z,7.23
2023-01-19T22:11:27.522Z,7.23
2023-01-19T22:13:56.299Z,7.23
2023-01-19T22:16:24.397Z,7.23
2023-01-19T22:18:56.467Z,7.23
2023-01-19T22:21:26.811Z,7.22
2023-01-19T22:23:59.282Z,7.23
2023-01-19T22:26:29.030Z,7.23
2023-01-19T22:28:59.470Z,7.24
2023-01-19T22:31:29.203Z,7.23
2023-01-19T22:33:58.485Z,7.22
2023-01-19T22:36:27.788Z,7.22
2023-01-19T22:39:15.771Z,7.20
2023-01-19T22:41:46.226Z,7.18
2023-01-19T22:44:17.571Z,7.15
2023-01-19T22:46:45.676Z,7.12
2023-01-19T22:49:16.202Z,7.09
2023-01-19T22:51:44.794Z,7.04
2023-01-19T22:54:12.963Z,6.99
2023-01-19T22:56:41.962Z,6.94
2023-01-19T22:59:10.030Z,6.86
2023-01-19T23:01:40.962Z,6.82
2023-01-19T23:04:13.201Z,6.76
2023-01-19T23:06:42.124Z,6.71
2023-01-19T23:09:12.869Z,6.66
2023-01-19T23:11:43.819Z,6.59
2023-01-19T23:14:16.993Z,6.52
2023-01-19T23:16:47.107Z,6.47
2023-01-19T23:19:17.203Z,6.43
2023-01-19T23:21:45.922Z,6.40
2023-01-19T23:24:13.985Z,6.36
2023-01-19T23:26:42.072Z,6.33
2023-01-19T23:29:13.612Z,6.29
2023-01-19T23:31:47.342Z,6.24
2023-01-19T23:34:16.131Z,6.17
2023-01-19T23:36:44.705Z,6.12
2023-01-19T23:39:22.672Z,6.07
2023-01-19T23:41:50.661Z,6.02
2023-01-19T23:44:18.789Z,5.96
2023-01-19T23:46:47.334Z,5.92
2023-01-19T23:49:15.245Z,5.87
2023-01-19T23:51:43.163Z,5.83
2023-01-19T23:54:12.395Z,5.78
2023-01-19T23:56:42.532Z,5.74
2023-01-19T23:59:13.006Z,5.70
